Terminal Aerodrome Forecast
Issued by NWS Sterling, VA

Current Version | Previous Version | Text Only | Print | Product List | Glossary On
Versions: 1 2 3 4 5 6 7 8 9 10 11 12 13 14 15 16 17 18 19 20
901
FTUS41 KLWX 282113 AAA
TAFMRB
TAF AMD
KMRB 282113Z 2821/2918 30006KT P6SM BKN040
     FM282300 32006KT P6SM BKN030
     FM290600 34007KT 4SM BR OVC003
     FM291000 34007KT P6SM BKN010
     FM291300 35008KT P6SM SCT025=

USA.gov is the U.S. government's official web portal to all federal, state and local government web resources and services.